sensor_id;sensor_type;location;lat;lon;timestamp;P1;durP1;ratioP1;P2;durP2;ratioP2
32451;SDS011;45528;52.102;5.242;2022-12-04T00:01:05;58.6;;;29.6;;
32451;SDS011;45528;52.102;5.242;2022-12-04T00:02:43;58.3;;;29.9;;
32451;SDS011;45528;52.102;5.242;2022-12-04T00:04:19;56.4;;;29.1;;
32451;SDS011;45528;52.102;5.242;2022-12-04T00:07:40;62.9;;;31.9;;
32451;SDS011;45528;52.102;5.242;2022-12-04T00:09:16;66.8;;;31.8;;
32451;SDS011;45528;52.102;5.242;2022-12-04T00:10:53;68.7;;;31.3;;
32451;SDS011;45528;52.102;5.242;2022-12-04T00:14:05;62.6;;;31.2;;
32451;SDS011;45528;52.102;5.242;2022-12-04T00:15:42;63.1;;;31.9;;
32451;SDS011;45528;52.102;5.242;2022-12-04T00:17:18;61.2;;;30.7;;
32451;SDS011;45528;52.102;5.242;2022-12-04T00:18:55;62.9;;;30.7;;
32451;SDS011;45528;52.102;5.242;2022-12-04T00:22:08;63.5;;;30.8;;
32451;SDS011;45528;52.102;5.242;2022-12-04T00:23:44;63.0;;;30.8;;
32451;SDS011;45528;52.102;5.242;2022-12-04T00:25:22;64.0;;;31.3;;
32451;SDS011;45528;52.102;5.242;2022-12-04T00:28:34;66.0;;;31.9;;
32451;SDS011;45528;52.102;5.242;2022-12-04T00:30:11;68.0;;;32.5;;
32451;SDS011;45528;52.102;5.242;2022-12-04T00:31:48;62.2;;;30.3;;
32451;SDS011;45528;52.102;5.242;2022-12-04T00:35:01;63.1;;;30.9;;
32451;SDS011;45528;52.102;5.242;2022-12-04T00:36:38;64.5;;;31.1;;
32451;SDS011;45528;52.102;5.242;2022-12-04T00:38:14;62.0;;;31.4;;
32451;SDS011;45528;52.102;5.242;2022-12-04T00:39:50;58.1;;;30.8;;
32451;SDS011;45528;52.102;5.242;2022-12-04T00:43:06;62.3;;;30.8;;
32451;SDS011;45528;52.102;5.242;2022-12-04T00:44:42;62.6;;;30.9;;
32451;SDS011;45528;52.102;5.242;2022-12-04T00:46:18;63.8;;;31.2;;
32451;SDS011;45528;52.102;5.242;2022-12-04T00:49:31;62.8;;;31.3;;
32451;SDS011;45528;52.102;5.242;2022-12-04T00:51:08;61.8;;;31.3;;
32451;SDS011;45528;52.102;5.242;2022-12-04T00:52:47;59.2;;;31.0;;
32451;SDS011;45528;52.102;5.242;2022-12-04T00:56:02;66.1;;;31.6;;
32451;SDS011;45528;52.102;5.242;2022-12-04T00:57:39;64.1;;;32.5;;
32451;SDS011;45528;52.102;5.242;2022-12-04T00:59:15;63.9;;;33.3;;
32451;SDS011;45528;52.102;5.242;2022-12-04T01:00:59;68.8;;;31.1;;
32451;SDS011;45528;52.102;5.242;2022-12-04T01:04:13;59.7;;;31.7;;
32451;SDS011;45528;52.102;5.242;2022-12-04T01:05:49;62.9;;;31.4;;
32451;SDS011;45528;52.102;5.242;2022-12-04T01:07:24;64.0;;;32.21;;
32451;SDS011;45528;52.102;5.242;2022-12-04T01:10:40;64.8;;;32.71;;
32451;SDS011;45528;52.102;5.242;2022-12-04T01:12:17;69.11;;;32.6;;
32451;SDS011;45528;52.102;5.242;2022-12-04T01:13:53;63.6;;;32.8;;
32451;SDS011;45528;52.102;5.242;2022-12-04T01:15:30;58.0;;;31.1;;
32451;SDS011;45528;52.102;5.242;2022-12-04T01:18:43;58.8;;;31.1;;
32451;SDS011;45528;52.102;5.242;2022-12-04T01:20:21;61.1;;;31.5;;
32451;SDS011;45528;52.102;5.242;2022-12-04T01:21:58;64.8;;;32.0;;
32451;SDS011;45528;52.102;5.242;2022-12-04T01:25:10;67.7;;;32.1;;
32451;SDS011;45528;52.102;5.242;2022-12-04T01:26:46;63.4;;;32.1;;
32451;SDS011;45528;52.102;5.242;2022-12-04T01:28:23;69.3;;;33.5;;
32451;SDS011;45528;52.102;5.242;2022-12-04T01:31:36;60.4;;;32.4;;
32451;SDS011;45528;52.102;5.242;2022-12-04T01:33:12;64.7;;;32.21;;
32451;SDS011;45528;52.102;5.242;2022-12-04T01:34:47;70.2;;;33.4;;
32451;SDS011;45528;52.102;5.242;2022-12-04T01:36:24;70.61;;;32.8;;
32451;SDS011;45528;52.102;5.242;2022-12-04T01:39:39;70.11;;;33.21;;
32451;SDS011;45528;52.102;5.242;2022-12-04T01:41:16;67.5;;;33.4;;
32451;SDS011;45528;52.102;5.242;2022-12-04T01:42:55;70.5;;;32.8;;
32451;SDS011;45528;52.102;5.242;2022-12-04T01:46:08;67.41;;;33.5;;
32451;SDS011;45528;52.102;5.242;2022-12-04T01:47:46;64.7;;;32.9;;
32451;SDS011;45528;52.102;5.242;2022-12-04T01:49:24;64.91;;;32.21;;
32451;SDS011;45528;52.102;5.242;2022-12-04T01:51:06;66.1;;;32.9;;
32451;SDS011;45528;52.102;5.242;2022-12-04T01:54:28;65.2;;;32.21;;
32451;SDS011;45528;52.102;5.242;2022-12-04T01:56:10;65.0;;;34.1;;
32451;SDS011;45528;52.102;5.242;2022-12-04T01:57:46;68.91;;;34.6;;
32451;SDS011;45528;52.102;5.242;2022-12-04T01:59:23;68.91;;;34.6;;
32451;SDS011;45528;52.102;5.242;2022-12-04T02:02:44;65.1;;;32.9;;
32451;SDS011;45528;52.102;5.242;2022-12-04T02:04:22;63.7;;;33.21;;
32451;SDS011;45528;52.102;5.242;2022-12-04T02:05:58;68.5;;;32.8;;
32451;SDS011;45528;52.102;5.242;2022-12-04T02:09:14;65.2;;;32.71;;
32451;SDS011;45528;52.102;5.242;2022-12-04T02:10:54;62.9;;;32.4;;
32451;SDS011;45528;52.102;5.242;2022-12-04T02:12:41;64.41;;;33.21;;
32451;SDS011;45528;52.102;5.242;2022-12-04T02:14:29;68.1;;;32.5;;
32451;SDS011;45528;52.102;5.242;2022-12-04T02:16:14;65.7;;;32.8;;
32451;SDS011;45528;52.102;5.242;2022-12-04T02:20:05;64.3;;;32.4;;
32451;SDS011;45528;52.102;5.242;2022-12-04T02:21:58;68.1;;;33.4;;
32451;SDS011;45528;52.102;5.242;2022-12-04T02:23:49;62.1;;;32.3;;
32451;SDS011;45528;52.102;5.242;2022-12-04T02:25:39;62.1;;;32.3;;
32451;SDS011;45528;52.102;5.242;2022-12-04T02:27:29;61.9;;;32.4;;
32451;SDS011;45528;52.102;5.242;2022-12-04T02:29:46;60.9;;;32.1;;
32451;SDS011;45528;52.102;5.242;2022-12-04T02:31:33;66.2;;;33.1;;
32451;SDS011;45528;52.102;5.242;2022-12-04T02:33:16;65.7;;;33.8;;
32451;SDS011;45528;52.102;5.242;2022-12-04T02:34:57;61.1;;;32.3;;
32451;SDS011;45528;52.102;5.242;2022-12-04T02:38:22;69.5;;;33.4;;
32451;SDS011;45528;52.102;5.242;2022-12-04T02:40:08;67.1;;;33.6;;
32451;SDS011;45528;52.102;5.242;2022-12-04T02:41:53;65.3;;;32.9;;
32451;SDS011;45528;52.102;5.242;2022-12-04T02:43:36;66.3;;;32.6;;
32451;SDS011;45528;52.102;5.242;2022-12-04T02:47:01;63.4;;;33.71;;
32451;SDS011;45528;52.102;5.242;2022-12-04T02:48:48;68.1;;;33.4;;
32451;SDS011;45528;52.102;5.242;2022-12-04T02:50:28;64.3;;;32.5;;
32451;SDS011;45528;52.102;5.242;2022-12-04T02:52:09;68.41;;;33.21;;
32451;SDS011;45528;52.102;5.242;2022-12-04T02:53:49;65.91;;;34.21;;
32451;SDS011;45528;52.102;5.242;2022-12-04T02:57:13;62.2;;;32.71;;
32451;SDS011;45528;52.102;5.242;2022-12-04T02:58:54;68.7;;;34.5;;
32451;SDS011;45528;52.102;5.242;2022-12-04T03:00:35;64.5;;;32.8;;
32451;SDS011;45528;52.102;5.242;2022-12-04T03:02:16;69.3;;;34.6;;
32451;SDS011;45528;52.102;5.242;2022-12-04T03:05:54;65.5;;;33.71;;
32451;SDS011;45528;52.102;5.242;2022-12-04T03:07:36;66.5;;;33.6;;
32451;SDS011;45528;52.102;5.242;2022-12-04T03:09:21;63.2;;;33.21;;
32451;SDS011;45528;52.102;5.242;2022-12-04T03:11:00;65.3;;;32.4;;
32451;SDS011;45528;52.102;5.242;2022-12-04T03:12:37;66.8;;;34.1;;
32451;SDS011;45528;52.102;5.242;2022-12-04T03:16:00;68.2;;;34.21;;
32451;SDS011;45528;52.102;5.242;2022-12-04T03:17:44;65.6;;;33.5;;
32451;SDS011;45528;52.102;5.242;2022-12-04T03:19:33;67.0;;;34.71;;
32451;SDS011;45528;52.102;5.242;2022-12-04T03:21:15;65.0;;;34.5;;
32451;SDS011;45528;52.102;5.242;2022-12-04T03:24:42;68.2;;;33.71;;
32451;SDS011;45528;52.102;5.242;2022-12-04T03:26:23;67.1;;;34.31;;
32451;SDS011;45528;52.102;5.242;2022-12-04T03:28:04;64.3;;;33.0;;
32451;SDS011;45528;52.102;5.242;2022-12-04T03:29:50;61.4;;;32.21;;
32451;SDS011;45528;52.102;5.242;2022-12-04T03:31:34;67.41;;;34.5;;
32451;SDS011;45528;52.102;5.242;2022-12-04T03:34:58;67.0;;;33.4;;
32451;SDS011;45528;52.102;5.242;2022-12-04T03:36:41;66.6;;;33.6;;
32451;SDS011;45528;52.102;5.242;2022-12-04T03:38:26;66.91;;;33.21;;
32451;SDS011;45528;52.102;5.242;2022-12-04T03:40:14;63.3;;;33.9;;
32451;SDS011;45528;52.102;5.242;2022-12-04T03:41:57;67.8;;;34.1;;
32451;SDS011;45528;52.102;5.242;2022-12-04T03:45:26;63.6;;;33.5;;
32451;SDS011;45528;52.102;5.242;2022-12-04T03:47:12;68.3;;;34.71;;
32451;SDS011;45528;52.102;5.242;2022-12-04T03:48:54;63.9;;;33.0;;
32451;SDS011;45528;52.102;5.242;2022-12-04T03:50:38;64.1;;;33.8;;
32451;SDS011;45528;52.102;5.242;2022-12-04T03:52:23;68.41;;;33.6;;
32451;SDS011;45528;52.102;5.242;2022-12-04T03:55:50;66.8;;;33.9;;
32451;SDS011;45528;52.102;5.242;2022-12-04T03:57:32;68.2;;;34.9;;
32451;SDS011;45528;52.102;5.242;2022-12-04T03:59:14;65.2;;;35.0;;
32451;SDS011;45528;52.102;5.242;2022-12-04T04:00:56;65.91;;;32.8;;
32451;SDS011;45528;52.102;5.242;2022-12-04T04:04:19;68.7;;;35.1;;
32451;SDS011;45528;52.102;5.242;2022-12-04T04:06:06;64.7;;;32.9;;
32451;SDS011;45528;52.102;5.242;2022-12-04T04:07:49;63.0;;;32.9;;
32451;SDS011;45528;52.102;5.242;2022-12-04T04:09:32;69.2;;;32.8;;
32451;SDS011;45528;52.102;5.242;2022-12-04T04:11:15;69.61;;;34.21;;
32451;SDS011;45528;52.102;5.242;2022-12-04T04:26:02;66.2;;;33.6;;
32451;SDS011;45528;52.102;5.242;2022-12-04T04:29:17;67.6;;;34.71;;
32451;SDS011;45528;52.102;5.242;2022-12-04T04:30:54;62.6;;;32.5;;
32451;SDS011;45528;52.102;5.242;2022-12-04T04:32:41;66.41;;;33.1;;
32451;SDS011;45528;52.102;5.242;2022-12-04T04:34:23;62.6;;;32.8;;
32451;SDS011;45528;52.102;5.242;2022-12-04T04:37:56;62.9;;;32.3;;
32451;SDS011;45528;52.102;5.242;2022-12-04T04:39:41;60.2;;;32.0;;
32451;SDS011;45528;52.102;5.242;2022-12-04T04:41:25;63.4;;;33.0;;
32451;SDS011;45528;52.102;5.242;2022-12-04T04:43:09;69.3;;;34.5;;
32451;SDS011;45528;52.102;5.242;2022-12-04T04:44:57;67.1;;;34.0;;
32451;SDS011;45528;52.102;5.242;2022-12-04T04:48:24;68.41;;;34.81;;
32451;SDS011;45528;52.102;5.242;2022-12-04T04:50:06;66.8;;;33.21;;
32451;SDS011;45528;52.102;5.242;2022-12-04T04:51:45;67.7;;;33.5;;
32451;SDS011;45528;52.102;5.242;2022-12-04T04:53:23;70.11;;;34.21;;
32451;SDS011;45528;52.102;5.242;2022-12-04T04:56:44;64.5;;;33.0;;
32451;SDS011;45528;52.102;5.242;2022-12-04T04:58:22;64.7;;;33.8;;
32451;SDS011;45528;52.102;5.242;2022-12-04T04:59:58;65.6;;;34.4;;
32451;SDS011;45528;52.102;5.242;2022-12-04T05:01:34;66.7;;;34.0;;
32451;SDS011;45528;52.102;5.242;2022-12-04T05:04:48;63.8;;;33.71;;
32451;SDS011;45528;52.102;5.242;2022-12-04T05:06:25;66.7;;;33.1;;
32451;SDS011;45528;52.102;5.242;2022-12-04T05:08:01;66.91;;;35.1;;
32451;SDS011;45528;52.102;5.242;2022-12-04T05:11:14;71.5;;;36.31;;
32451;SDS011;45528;52.102;5.242;2022-12-04T05:12:52;69.2;;;36.9;;
32451;SDS011;45528;52.102;5.242;2022-12-04T05:14:28;69.2;;;34.71;;
32451;SDS011;45528;52.102;5.242;2022-12-04T05:16:05;68.7;;;35.6;;
32451;SDS011;45528;52.102;5.242;2022-12-04T05:19:52;68.41;;;35.21;;
32451;SDS011;45528;52.102;5.242;2022-12-04T05:21:29;70.41;;;36.4;;
32451;SDS011;45528;52.102;5.242;2022-12-04T05:23:06;72.5;;;36.6;;
32451;SDS011;45528;52.102;5.242;2022-12-04T05:24:42;76.5;;;36.31;;
32451;SDS011;45528;52.102;5.242;2022-12-04T05:27:54;67.7;;;35.31;;
32451;SDS011;45528;52.102;5.242;2022-12-04T05:29:30;68.41;;;34.4;;
32451;SDS011;45528;52.102;5.242;2022-12-04T05:31:06;72.5;;;36.5;;
32451;SDS011;45528;52.102;5.242;2022-12-04T05:34:18;75.41;;;37.6;;
32451;SDS011;45528;52.102;5.242;2022-12-04T05:35:55;78.0;;;39.1;;
32451;SDS011;45528;52.102;5.242;2022-12-04T05:37:34;72.2;;;36.71;;
32451;SDS011;45528;52.102;5.242;2022-12-04T05:39:12;73.11;;;36.31;;
32451;SDS011;45528;52.102;5.242;2022-12-04T05:42:24;74.11;;;35.9;;
32451;SDS011;45528;52.102;5.242;2022-12-04T05:44:00;74.0;;;37.71;;
32451;SDS011;45528;52.102;5.242;2022-12-04T05:45:37;72.91;;;35.4;;
32451;SDS011;45528;52.102;5.242;2022-12-04T05:48:49;73.3;;;35.31;;
32451;SDS011;45528;52.102;5.242;2022-12-04T05:50:25;70.3;;;36.1;;
32451;SDS011;45528;52.102;5.242;2022-12-04T05:52:03;68.1;;;35.31;;
32451;SDS011;45528;52.102;5.242;2022-12-04T05:55:16;70.11;;;34.9;;
32451;SDS011;45528;52.102;5.242;2022-12-04T05:56:52;70.41;;;35.71;;
32451;SDS011;45528;52.102;5.242;2022-12-04T05:58:28;69.5;;;35.6;;
32451;SDS011;45528;52.102;5.242;2022-12-04T06:00:06;69.91;;;34.9;;
32451;SDS011;45528;52.102;5.242;2022-12-04T06:03:21;65.5;;;34.0;;
32451;SDS011;45528;52.102;5.242;2022-12-04T06:04:58;70.5;;;34.5;;
32451;SDS011;45528;52.102;5.242;2022-12-04T06:06:34;69.2;;;35.71;;
32451;SDS011;45528;52.102;5.242;2022-12-04T06:09:49;74.91;;;36.5;;
32451;SDS011;45528;52.102;5.242;2022-12-04T06:11:25;72.5;;;35.4;;
32451;SDS011;45528;52.102;5.242;2022-12-04T06:13:04;67.41;;;35.1;;
32451;SDS011;45528;52.102;5.242;2022-12-04T06:14:41;67.2;;;34.21;;
32451;SDS011;45528;52.102;5.242;2022-12-04T06:17:58;67.8;;;34.5;;
32451;SDS011;45528;52.102;5.242;2022-12-04T06:19:35;67.91;;;34.71;;
32451;SDS011;45528;52.102;5.242;2022-12-04T06:21:11;70.41;;;35.9;;
32451;SDS011;45528;52.102;5.242;2022-12-04T06:24:23;64.91;;;33.9;;
32451;SDS011;45528;52.102;5.242;2022-12-04T06:26:00;66.7;;;34.4;;
32451;SDS011;45528;52.102;5.242;2022-12-04T06:27:38;68.1;;;34.6;;
32451;SDS011;45528;52.102;5.242;2022-12-04T06:30:51;67.5;;;34.4;;
32451;SDS011;45528;52.102;5.242;2022-12-04T06:32:27;68.1;;;34.31;;
32451;SDS011;45528;52.102;5.242;2022-12-04T06:34:04;70.91;;;34.6;;
32451;SDS011;45528;52.102;5.242;2022-12-04T06:35:42;73.2;;;34.4;;
32451;SDS011;45528;52.102;5.242;2022-12-04T06:38:56;66.41;;;33.5;;
32451;SDS011;45528;52.102;5.242;2022-12-04T06:40:32;66.3;;;33.8;;
32451;SDS011;45528;52.102;5.242;2022-12-04T06:42:09;68.1;;;34.0;;
32451;SDS011;45528;52.102;5.242;2022-12-04T06:45:21;62.7;;;33.0;;
32451;SDS011;45528;52.102;5.242;2022-12-04T06:46:57;62.7;;;33.0;;
32451;SDS011;45528;52.102;5.242;2022-12-04T06:48:33;67.5;;;33.8;;
32451;SDS011;45528;52.102;5.242;2022-12-04T06:51:47;64.2;;;33.5;;
32451;SDS011;45528;52.102;5.242;2022-12-04T06:53:23;63.4;;;33.4;;
32451;SDS011;45528;52.102;5.242;2022-12-04T06:56:35;66.2;;;32.71;;
32451;SDS011;45528;52.102;5.242;2022-12-04T06:58:12;63.3;;;32.5;;
32451;SDS011;45528;52.102;5.242;2022-12-04T06:59:48;65.5;;;34.21;;
32451;SDS011;45528;52.102;5.242;2022-12-04T07:01:25;65.5;;;34.21;;
32451;SDS011;45528;52.102;5.242;2022-12-04T07:03:05;64.2;;;32.5;;
32451;SDS011;45528;52.102;5.242;2022-12-04T07:06:18;65.5;;;32.8;;
32451;SDS011;45528;52.102;5.242;2022-12-04T07:07:56;69.7;;;33.5;;
32451;SDS011;45528;52.102;5.242;2022-12-04T07:09:32;68.0;;;33.8;;
32451;SDS011;45528;52.102;5.242;2022-12-04T07:11:08;61.0;;;32.5;;
32451;SDS011;45528;52.102;5.242;2022-12-04T07:14:22;62.9;;;32.6;;
32451;SDS011;45528;52.102;5.242;2022-12-04T07:16:00;60.0;;;31.7;;
32451;SDS011;45528;52.102;5.242;2022-12-04T07:17:36;60.1;;;32.9;;
32451;SDS011;45528;52.102;5.242;2022-12-04T07:20:50;63.2;;;33.3;;
32451;SDS011;45528;52.102;5.242;2022-12-04T07:22:26;61.3;;;32.6;;
32451;SDS011;45528;52.102;5.242;2022-12-04T07:24:02;64.0;;;32.21;;
32451;SDS011;45528;52.102;5.242;2022-12-04T07:27:15;63.6;;;31.6;;
32451;SDS011;45528;52.102;5.242;2022-12-04T07:28:52;64.5;;;32.3;;
32451;SDS011;45528;52.102;5.242;2022-12-04T07:30:29;60.7;;;31.8;;
32451;SDS011;45528;52.102;5.242;2022-12-04T07:32:05;61.8;;;32.0;;
32451;SDS011;45528;52.102;5.242;2022-12-04T07:35:19;65.2;;;32.6;;
32451;SDS011;45528;52.102;5.242;2022-12-04T07:36:55;63.3;;;32.71;;
32451;SDS011;45528;52.102;5.242;2022-12-04T07:38:32;61.0;;;31.9;;
32451;SDS011;45528;52.102;5.242;2022-12-04T07:41:46;61.8;;;32.1;;
32451;SDS011;45528;52.102;5.242;2022-12-04T07:43:22;57.8;;;31.0;;
32451;SDS011;45528;52.102;5.242;2022-12-04T07:44:59;56.6;;;30.9;;
32451;SDS011;45528;52.102;5.242;2022-12-04T07:48:12;66.2;;;32.3;;
32451;SDS011;45528;52.102;5.242;2022-12-04T07:49:48;63.7;;;32.9;;
32451;SDS011;45528;52.102;5.242;2022-12-04T07:51:25;61.8;;;32.3;;
32451;SDS011;45528;52.102;5.242;2022-12-04T07:53:03;65.7;;;33.21;;
32451;SDS011;45528;52.102;5.242;2022-12-04T07:56:16;65.8;;;33.0;;
32451;SDS011;45528;52.102;5.242;2022-12-04T07:57:53;61.1;;;32.4;;
32451;SDS011;45528;52.102;5.242;2022-12-04T07:59:29;69.3;;;33.8;;
32451;SDS011;45528;52.102;5.242;2022-12-04T08:02:44;64.7;;;33.4;;
32451;SDS011;45528;52.102;5.242;2022-12-04T08:04:20;62.8;;;32.21;;
32451;SDS011;45528;52.102;5.242;2022-12-04T08:05:58;66.1;;;34.21;;
32451;SDS011;45528;52.102;5.242;2022-12-04T08:09:11;68.0;;;36.81;;
32451;SDS011;45528;52.102;5.242;2022-12-04T08:10:47;69.5;;;38.81;;
32451;SDS011;45528;52.102;5.242;2022-12-04T08:12:24;70.91;;;39.0;;
32451;SDS011;45528;52.102;5.242;2022-12-04T08:14:01;69.8;;;39.71;;
32451;SDS011;45528;52.102;5.242;2022-12-04T08:17:15;69.8;;;39.71;;
32451;SDS011;45528;52.102;5.242;2022-12-04T08:18:52;70.3;;;39.9;;
32451;SDS011;45528;52.102;5.242;2022-12-04T08:20:29;70.61;;;39.6;;
32451;SDS011;45528;52.102;5.242;2022-12-04T08:23:41;73.91;;;40.4;;
32451;SDS011;45528;52.102;5.242;2022-12-04T08:25:19;72.11;;;40.6;;
32451;SDS011;45528;52.102;5.242;2022-12-04T08:26:55;79.8;;;41.8;;
32451;SDS011;45528;52.102;5.242;2022-12-04T08:28:33;72.8;;;39.71;;
32451;SDS011;45528;52.102;5.242;2022-12-04T08:31:47;74.5;;;41.0;;
32451;SDS011;45528;52.102;5.242;2022-12-04T08:33:23;73.5;;;41.5;;
32451;SDS011;45528;52.102;5.242;2022-12-04T08:34:59;74.11;;;41.1;;
32451;SDS011;45528;52.102;5.242;2022-12-04T08:38:12;70.3;;;39.21;;
32451;SDS011;45528;52.102;5.242;2022-12-04T08:39:48;71.61;;;41.3;;
32451;SDS011;45528;52.102;5.242;2022-12-04T08:41:25;73.91;;;41.6;;
32451;SDS011;45528;52.102;5.242;2022-12-04T08:44:38;74.61;;;41.4;;
32451;SDS011;45528;52.102;5.242;2022-12-04T08:46:15;74.61;;;41.3;;
32451;SDS011;45528;52.102;5.242;2022-12-04T08:47:53;76.2;;;40.31;;
32451;SDS011;45528;52.102;5.242;2022-12-04T08:49:29;70.61;;;40.0;;
32451;SDS011;45528;52.102;5.242;2022-12-04T08:52:48;72.8;;;39.9;;
32451;SDS011;45528;52.102;5.242;2022-12-04T08:54:24;74.91;;;41.1;;
32451;SDS011;45528;52.102;5.242;2022-12-04T08:56:01;72.5;;;39.9;;
32451;SDS011;45528;52.102;5.242;2022-12-04T08:59:14;72.11;;;41.0;;
32451;SDS011;45528;52.102;5.242;2022-12-04T09:00:50;73.2;;;40.71;;
32451;SDS011;45528;52.102;5.242;2022-12-04T09:02:26;75.8;;;41.3;;
32451;SDS011;45528;52.102;5.242;2022-12-04T09:05:40;76.7;;;40.9;;
32451;SDS011;45528;52.102;5.242;2022-12-04T09:07:17;73.0;;;40.21;;
32451;SDS011;45528;52.102;5.242;2022-12-04T09:08:53;74.2;;;40.4;;
32451;SDS011;45528;52.102;5.242;2022-12-04T09:10:32;72.3;;;39.4;;
32451;SDS011;45528;52.102;5.242;2022-12-04T09:13:47;71.7;;;39.4;;
32451;SDS011;45528;52.102;5.242;2022-12-04T09:15:24;75.3;;;40.1;;
32451;SDS011;45528;52.102;5.242;2022-12-04T09:17:00;70.5;;;38.5;;
32451;SDS011;45528;52.102;5.242;2022-12-04T09:20:14;71.11;;;38.6;;
32451;SDS011;45528;52.102;5.242;2022-12-04T09:21:50;68.7;;;38.0;;
32451;SDS011;45528;52.102;5.242;2022-12-04T09:23:26;70.41;;;38.5;;
32451;SDS011;45528;52.102;5.242;2022-12-04T09:25:04;73.3;;;39.0;;
32451;SDS011;45528;52.102;5.242;2022-12-04T09:28:17;69.11;;;37.5;;
32451;SDS011;45528;52.102;5.242;2022-12-04T09:29:55;65.7;;;36.9;;
32451;SDS011;45528;52.102;5.242;2022-12-04T09:31:31;63.2;;;36.4;;
32451;SDS011;45528;52.102;5.242;2022-12-04T09:34:45;68.91;;;37.4;;
32451;SDS011;45528;52.102;5.242;2022-12-04T09:36:22;68.1;;;37.4;;
32451;SDS011;45528;52.102;5.242;2022-12-04T09:37:59;67.41;;;36.9;;
32451;SDS011;45528;52.102;5.242;2022-12-04T09:41:32;67.41;;;35.9;;
32451;SDS011;45528;52.102;5.242;2022-12-04T09:43:26;66.5;;;35.5;;
32451;SDS011;45528;52.102;5.242;2022-12-04T09:45:09;62.7;;;35.1;;
32451;SDS011;45528;52.102;5.242;2022-12-04T09:46:50;63.2;;;35.31;;
32451;SDS011;45528;52.102;5.242;2022-12-04T09:48:34;65.7;;;36.0;;
32451;SDS011;45528;52.102;5.242;2022-12-04T09:50:15;62.0;;;35.1;;
32451;SDS011;45528;52.102;5.242;2022-12-04T09:53:40;64.3;;;35.5;;
32451;SDS011;45528;52.102;5.242;2022-12-04T09:55:24;68.7;;;35.71;;
32451;SDS011;45528;52.102;5.242;2022-12-04T09:57:09;59.7;;;33.9;;
32451;SDS011;45528;52.102;5.242;2022-12-04T09:58:52;68.8;;;36.5;;
32451;SDS011;45528;52.102;5.242;2022-12-04T10:02:23;66.5;;;35.0;;
32451;SDS011;45528;52.102;5.242;2022-12-04T10:04:09;61.6;;;34.31;;
32451;SDS011;45528;52.102;5.242;2022-12-04T10:05:50;66.7;;;35.4;;
32451;SDS011;45528;52.102;5.242;2022-12-04T10:07:35;69.41;;;35.6;;
32451;SDS011;45528;52.102;5.242;2022-12-04T10:09:23;59.5;;;33.21;;
32451;SDS011;45528;52.102;5.242;2022-12-04T10:11:09;63.8;;;35.4;;
32451;SDS011;45528;52.102;5.242;2022-12-04T10:14:43;60.4;;;32.71;;
32451;SDS011;45528;52.102;5.242;2022-12-04T10:16:42;63.7;;;34.1;;
32451;SDS011;45528;52.102;5.242;2022-12-04T10:18:37;64.1;;;34.21;;
32451;SDS011;45528;52.102;5.242;2022-12-04T10:20:27;58.2;;;34.31;;
32451;SDS011;45528;52.102;5.242;2022-12-04T21:00:40;64.2;;;33.4;;
32451;SDS011;45528;52.102;5.242;2022-12-04T21:02:29;64.2;;;33.4;;
32451;SDS011;45528;52.102;5.242;2022-12-04T21:04:06;62.5;;;33.71;;
32451;SDS011;45528;52.102;5.242;2022-12-04T21:07:23;59.2;;;32.71;;
32451;SDS011;45528;52.102;5.242;2022-12-04T21:09:03;60.0;;;32.9;;
32451;SDS011;45528;52.102;5.242;2022-12-04T21:10:40;62.2;;;33.5;;
32451;SDS011;45528;52.102;5.242;2022-12-04T21:16:27;58.2;;;32.5;;
32451;SDS011;45528;52.102;5.242;2022-12-04T21:18:03;59.6;;;32.9;;
32451;SDS011;45528;52.102;5.242;2022-12-04T21:19:40;61.5;;;33.21;;
32451;SDS011;45528;52.102;5.242;2022-12-04T21:21:16;59.2;;;32.8;;
32451;SDS011;45528;52.102;5.242;2022-12-04T21:22:52;61.9;;;33.5;;
32451;SDS011;45528;52.102;5.242;2022-12-04T21:26:08;59.3;;;32.0;;
32451;SDS011;45528;52.102;5.242;2022-12-04T21:27:44;60.6;;;33.21;;
32451;SDS011;45528;52.102;5.242;2022-12-04T21:29:20;59.9;;;32.5;;
32451;SDS011;45528;52.102;5.242;2022-12-04T21:32:35;57.3;;;32.0;;
32451;SDS011;45528;52.102;5.242;2022-12-04T21:34:13;59.1;;;32.4;;
32451;SDS011;45528;52.102;5.242;2022-12-04T21:35:51;64.1;;;33.9;;
32451;SDS011;45528;52.102;5.242;2022-12-04T21:37:27;62.3;;;33.6;;
32451;SDS011;45528;52.102;5.242;2022-12-04T21:40:40;59.3;;;32.6;;
32451;SDS011;45528;52.102;5.242;2022-12-04T21:42:33;56.4;;;32.1;;
32451;SDS011;45528;52.102;5.242;2022-12-04T21:44:10;56.0;;;32.5;;
32451;SDS011;45528;52.102;5.242;2022-12-04T21:45:54;58.5;;;31.8;;
32451;SDS011;45528;52.102;5.242;2022-12-04T21:49:08;56.0;;;32.4;;
32451;SDS011;45528;52.102;5.242;2022-12-04T21:50:45;58.8;;;32.9;;
32451;SDS011;45528;52.102;5.242;2022-12-04T21:52:22;56.2;;;33.3;;
32451;SDS011;45528;52.102;5.242;2022-12-04T21:55:36;60.8;;;33.0;;
32451;SDS011;45528;52.102;5.242;2022-12-04T21:57:12;58.5;;;33.0;;
32451;SDS011;45528;52.102;5.242;2022-12-04T21:58:48;53.6;;;31.4;;
32451;SDS011;45528;52.102;5.242;2022-12-04T22:00:25;56.3;;;32.9;;
32451;SDS011;45528;52.102;5.242;2022-12-04T22:03:38;59.2;;;32.9;;
32451;SDS011;45528;52.102;5.242;2022-12-04T22:05:15;61.0;;;33.9;;
32451;SDS011;45528;52.102;5.242;2022-12-04T22:06:51;60.2;;;33.71;;
32451;SDS011;45528;52.102;5.242;2022-12-04T22:10:07;60.2;;;32.3;;
32451;SDS011;45528;52.102;5.242;2022-12-04T22:11:44;59.7;;;33.1;;
32451;SDS011;45528;52.102;5.242;2022-12-04T22:13:21;55.2;;;32.6;;
32451;SDS011;45528;52.102;5.242;2022-12-04T22:16:33;61.5;;;34.1;;
32451;SDS011;45528;52.102;5.242;2022-12-04T22:18:11;58.6;;;32.9;;
32451;SDS011;45528;52.102;5.242;2022-12-04T22:19:48;59.1;;;33.4;;
32451;SDS011;45528;52.102;5.242;2022-12-04T22:21:24;58.7;;;34.0;;
32451;SDS011;45528;52.102;5.242;2022-12-04T22:24:40;54.8;;;32.0;;
32451;SDS011;45528;52.102;5.242;2022-12-04T22:26:18;60.6;;;32.8;;
32451;SDS011;45528;52.102;5.242;2022-12-04T22:27:54;58.7;;;33.1;;
32451;SDS011;45528;52.102;5.242;2022-12-04T22:31:08;61.4;;;33.5;;
32451;SDS011;45528;52.102;5.242;2022-12-04T22:32:46;55.8;;;32.1;;
32451;SDS011;45528;52.102;5.242;2022-12-04T22:34:22;57.5;;;32.6;;
32451;SDS011;45528;52.102;5.242;2022-12-04T22:36:01;57.2;;;33.21;;
32451;SDS011;45528;52.102;5.242;2022-12-04T22:39:14;50.3;;;31.1;;
32451;SDS011;45528;52.102;5.242;2022-12-04T22:40:50;50.3;;;31.1;;
32451;SDS011;45528;52.102;5.242;2022-12-04T22:42:27;57.3;;;32.4;;
32451;SDS011;45528;52.102;5.242;2022-12-04T22:45:41;57.9;;;31.7;;
32451;SDS011;45528;52.102;5.242;2022-12-04T22:47:18;55.6;;;32.1;;
32451;SDS011;45528;52.102;5.242;2022-12-04T22:48:54;52.0;;;30.6;;
32451;SDS011;45528;52.102;5.242;2022-12-04T22:52:07;58.9;;;32.9;;
32451;SDS011;45528;52.102;5.242;2022-12-04T22:53:43;58.4;;;32.0;;
32451;SDS011;45528;52.102;5.242;2022-12-04T22:55:21;52.4;;;30.7;;
32451;SDS011;45528;52.102;5.242;2022-12-04T22:56:57;51.8;;;30.3;;
32451;SDS011;45528;52.102;5.242;2022-12-04T23:00:11;52.4;;;31.3;;
32451;SDS011;45528;52.102;5.242;2022-12-04T23:01:50;52.7;;;31.8;;
32451;SDS011;45528;52.102;5.242;2022-12-04T23:03:26;58.5;;;32.5;;
32451;SDS011;45528;52.102;5.242;2022-12-04T23:06:39;54.5;;;32.0;;
32451;SDS011;45528;52.102;5.242;2022-12-04T23:08:15;55.9;;;31.5;;
32451;SDS011;45528;52.102;5.242;2022-12-04T23:09:52;54.1;;;31.9;;
32451;SDS011;45528;52.102;5.242;2022-12-04T23:13:05;57.6;;;31.2;;
32451;SDS011;45528;52.102;5.242;2022-12-04T23:14:41;59.2;;;31.0;;
32451;SDS011;45528;52.102;5.242;2022-12-04T23:16:18;56.0;;;31.6;;
32451;SDS011;45528;52.102;5.242;2022-12-04T23:17:55;52.6;;;30.0;;
32451;SDS011;45528;52.102;5.242;2022-12-04T23:21:08;51.2;;;30.0;;
32451;SDS011;45528;52.102;5.242;2022-12-04T23:22:47;57.2;;;31.2;;
32451;SDS011;45528;52.102;5.242;2022-12-04T23:24:24;56.4;;;31.2;;